| time (UTC) | temp C | wind direction | speed KPH | gust KPH | rain 1hr cm | rain 24hr cm | rain mn cm | humidity % | barometer mb |
| 20260510044556 | 17 | 0 | 0.0 | 0.0 | 0.28 | 0.38 | 0.38 | 84 | 1013.0 |
| 20260510043103 | 17 | 0 | 0.0 | 0.0 | 0.33 | 0.33 | 0.33 | 82 | 1012.4 |
| 20260510041546 | 18 | 0 | 0.0 | 0.0 | 0.28 | 0.28 | 0.28 | 79 | 1013.1 |
| 20260510040058 | 20 | 0 | 0.0 | 0.0 | 0.18 | 0.18 | 0.18 | 71 | 1014.5 |
| 20260510034552 | 23 | 0 | 0.0 | 0.0 | 0.10 | 0.10 | 0.10 | 61 | 1013.7 |
| 20260510033104 | 24 | 0 | 0.0 | 0.0 | 0.00 | 0.00 | 0.00 | 50 | 1009.8 |
| 20260510031553 | 25 | 0 | 0.0 | 0.0 | 0.00 | 0.00 | 0.00 | 50 | 1008.0 |
| 20260510030057 | 25 | 0 | 0.0 | 0.0 | 0.00 | 0.00 | 0.00 | 49 | 1008.0 |
| 20260510024552 | 25 | 0 | 0.0 | 0.0 | 0.00 | 0.00 | 0.00 | 48 | 1008.1 |
| 20260510023052 | 25 | 0 | 0.0 | 0.0 | 0.00 | 0.00 | 0.00 | 48 | 1008.3 |
| 20260510021547 | 25 | 0 | 0.0 | 0.0 | 0.00 | 0.00 | 0.00 | 48 | 1008.3 |
| 20260510020051 | 25 | 0 | 0.0 | 0.0 | 0.00 | 0.00 | 0.00 | 46 | 1007.7 |
| 20260510014552 | 25 | 0 | 0.0 | 0.0 | 0.00 | 0.00 | 0.00 | 45 | 1006.9 |
| 20260510013048 | 25 | 0 | 0.0 | 0.0 | 0.00 | 0.00 | 0.00 | 43 | 1007.0 |
| 20260510011551 | 26 | 0 | 0.0 | 0.0 | 0.00 | 0.00 | 0.00 | 41 | 1007.0 |
| 20260510010058 | 26 | 0 | 0.0 | 0.0 | 0.00 | 0.00 | 0.00 | 43 | 1007.2 |
| 20260510004552 | 26 | 0 | 0.0 | 0.0 | 0.00 | 0.00 | 0.00 | 42 | 1007.3 |
| 20260510003056 | 27 | 0 | 0.0 | 0.0 | 0.00 | 0.00 | 0.00 | 41 | 1007.4 |
| 20260510001556 | 27 | 0 | 0.0 | 0.0 | 0.00 | 0.00 | 0.00 | 39 | 1007.0 |
| 20260510000105 | 28 | 0 | 0.0 | 0.0 | 0.00 | 0.00 | 0.00 | 37 | 1007.3 |
| 20260509234600 | 28 | 0 | 0.0 | 0.0 | 0.00 | 0.00 | 0.00 | 34 | 1007.2 |
| 20260509233056 | 30 | 0 | 0.0 | 0.0 | 0.00 | 0.00 | 0.00 | 33 | 1007.3 |
| 20260509231555 | 30 | 0 | 0.0 | 0.0 | 0.00 | 0.00 | 0.00 | 33 | 1007.4 |
| 20260509230058 | 30 | 0 | 0.0 | 0.0 | 0.00 | 0.00 | 0.00 | 33 | 1007.5 |
| 20260509224548 | 30 | 0 | 0.0 | 0.0 | 0.00 | 0.66 | 0.00 | 32 | 1007.5 |
| 20260509223059 | 31 | 0 | 0.0 | 0.0 | 0.00 | 0.66 | 0.00 | 30 | 1007.9 |
| 20260509221550 | 30 | 0 | 0.0 | 0.0 | 0.00 | 0.66 | 0.00 | 32 | 1008.1 |
| 20260509220054 | 30 | 0 | 0.0 | 0.0 | 0.00 | 0.66 | 0.00 | 32 | 1008.2 |
| 20260509214550 | 30 | 0 | 0.0 | 0.0 | 0.00 | 0.66 | 0.00 | 33 | 1008.2 |
| 20260509213056 | 30 | 0 | 0.0 | 0.0 | 0.00 | 0.66 | 0.00 | 33 | 1008.3 |
| 20260509211549 | 30 | 0 | 0.0 | 0.0 | 0.00 | 0.66 | 0.00 | 32 | 1008.5 |
| 20260509210105 | 30 | 0 | 0.0 | 0.0 | 0.00 | 0.66 | 0.00 | 33 | 1008.7 |
| 20260509204555 | 30 | 0 | 0.0 | 0.0 | 0.00 | 0.66 | 0.00 | 33 | 1008.8 |
| 20260509203050 | 30 | 0 | 0.0 | 0.0 | 0.00 | 0.66 | 0.00 | 33 | 1009.0 |
| 20260509201550 | 30 | 0 | 0.0 | 0.0 | 0.00 | 0.66 | 0.00 | 33 | 1009.0 |
| 20260509200104 | 30 | 0 | 0.0 | 0.0 | 0.00 | 0.66 | 0.00 | 36 | 1009.3 |
| 20260509194552 | 30 | 0 | 0.0 | 0.0 | 0.00 | 0.66 | 0.00 | 36 | 1009.5 |
| 20260509193049 | 29 | 0 | 0.0 | 0.0 | 0.00 | 0.66 | 0.00 | 38 | 1009.7 |
| 20260509191549 | 29 | 0 | 0.0 | 0.0 | 0.00 | 0.66 | 0.00 | 36 | 1009.9 |
| 20260509190055 | 29 | 0 | 0.0 | 0.0 | 0.00 | 0.66 | 0.00 | 37 | 1009.9 |
| 20260509184559 | 29 | 0 | 0.0 | 0.0 | 0.00 | 0.66 | 0.00 | 40 | 1010.1 |
| 20260509183049 | 30 | 0 | 0.0 | 0.0 | 0.00 | 0.66 | 0.00 | 41 | 1010.3 |
| 20260509181602 | 29 | 0 | 0.0 | 0.0 | 0.00 | 0.66 | 0.00 | 41 | 1010.4 |
| 20260509180049 | 29 | 0 | 0.0 | 0.0 | 0.00 | 0.66 | 0.00 | 43 | 1010.7 |
| 20260509174552 | 28 | 0 | 0.0 | 0.0 | 0.00 | 0.66 | 0.00 | 47 | 1010.9 |
| 20260509173057 | 28 | 0 | 0.0 | 0.0 | 0.00 | 0.66 | 0.00 | 48 | 1011.2 |
| 20260509171547 | 28 | 0 | 0.0 | 0.0 | 0.00 | 0.66 | 0.00 | 48 | 1011.4 |
| 20260509170049 | 27 | 0 | 0.0 | 0.0 | 0.00 | 0.66 | 0.00 | 43 | 1011.4 |
| 20260509164551 | 27 | 0 | 0.0 | 0.0 | 0.00 | 0.66 | 0.00 | 50 | 1011.5 |
| 20260509163052 | 26 | 0 | 0.0 | 0.0 | 0.00 | 0.66 | 0.00 | 48 | 1011.4 |
| 20260509161549 | 26 | 0 | 0.0 | 0.0 | 0.00 | 0.66 | 0.00 | 49 | 1011.8 |
| 20260509160054 | 25 | 0 | 0.0 | 0.0 | 0.00 | 0.66 | 0.00 | 48 | 1011.7 |
| 20260509154551 | 25 | 0 | 0.0 | 0.0 | 0.00 | 0.66 | 0.00 | 58 | 1011.5 |
| 20260509153054 | 25 | 0 | 0.0 | 0.0 | 0.00 | 0.66 | 0.00 | 59 | 1011.5 |
| 20260509151555 | 23 | 0 | 0.0 | 0.0 | 0.00 | 0.66 | 0.00 | 64 | 1011.6 |
| 20260509150046 | 22 | 0 | 0.0 | 0.0 | 0.00 | 0.66 | 0.00 | 69 | 1011.5 |
| 20260509144604 | 21 | 0 | 0.0 | 0.0 | 0.00 | 0.66 | 0.00 | 77 | 1011.5 |
| 20260509143113 | 20 | 0 | 0.0 | 0.0 | 0.00 | 0.66 | 0.00 | 84 | 1011.3 |
| 20260509141548 | 19 | 0 | 0.0 | 0.0 | 0.00 | 0.66 | 0.00 | 92 | 1011.4 |
| 20260509140100 | 18 | 0 | 0.0 | 0.0 | 0.00 | 0.66 | 0.00 | 94 | 1011.5 |
| 20260509134606 | 17 | 0 | 0.0 | 0.0 | 0.00 | 0.66 | 0.00 | 94 | 1011.7 |
| 20260509133053 | 15 | 0 | 0.0 | 0.0 | 0.00 | 0.66 | 0.00 | 94 | 1011.4 |
| 20260509131548 | 15 | 0 | 0.0 | 0.0 | 0.00 | 0.66 | 0.00 | 94 | 1011.2 |
| 20260509130057 | 13 | 0 | 0.0 | 0.0 | 0.00 | 0.66 | 0.00 | 93 | 1010.9 |
| 20260509124551 | 13 | 0 | 0.0 | 0.0 | 0.00 | 0.66 | 0.00 | 94 | 1010.9 |
| 20260509123106 | 12 | 0 | 0.0 | 0.0 | 0.00 | 0.66 | 0.00 | 94 | 1010.8 |
| 20260509121601 | 12 | 0 | 0.0 | 0.0 | 0.00 | 0.66 | 0.00 | 93 | 1010.5 |
| 20260509114552 | 12 | 0 | 0.0 | 0.0 | 0.00 | 0.66 | 0.00 | 92 | 1010.3 |
| 20260509113049 | 12 | 0 | 0.0 | 0.0 | 0.00 | 0.66 | 0.00 | 92 | 1010.2 |
| 20260509111602 | 12 | 0 | 0.0 | 0.0 | 0.00 | 0.66 | 0.00 | 92 | 1009.9 |
| 20260509110047 | 12 | 0 | 0.0 | 0.0 | 0.00 | 0.66 | 0.00 | 92 | 1009.8 |
| 20260509104552 | 12 | 0 | 0.0 | 0.0 | 0.00 | 0.66 | 0.00 | 92 | 1010.0 |
| 20260509103100 | 12 | 0 | 0.0 | 0.0 | 0.00 | 0.66 | 0.00 | 92 | 1010.1 |
| 20260509101617 | 12 | 0 | 0.0 | 0.0 | 0.00 | 0.66 | 0.00 | 92 | 1010.1 |
| 20260509100050 | 13 | 0 | 0.0 | 0.0 | 0.00 | 0.66 | 0.00 | 92 | 1010.3 |
| 20260509094549 | 13 | 0 | 0.0 | 0.0 | 0.00 | 0.66 | 0.00 | 92 | 1010.6 |
| 20260509093054 | 13 | 0 | 0.0 | 0.0 | 0.00 | 0.66 | 0.00 | 92 | 1010.5 |
| 20260509091551 | 13 | 0 | 0.0 | 0.0 | 0.00 | 0.66 | 0.00 | 91 | 1010.8 |
| 20260509090101 | 13 | 0 | 0.0 | 0.0 | 0.00 | 0.66 | 0.00 | 91 | 1010.6 |
| 20260509084552 | 13 | 0 | 0.0 | 0.0 | 0.00 | 0.66 | 0.00 | 91 | 1010.7 |
| 20260509083054 | 13 | 0 | 0.0 | 0.0 | 0.00 | 0.66 | 0.00 | 91 | 1010.6 |
| 20260509081605 | 13 | 0 | 0.0 | 0.0 | 0.00 | 0.66 | 0.00 | 91 | 1010.4 |
| 20260509080052 | 14 | 0 | 0.0 | 0.0 | 0.00 | 0.66 | 0.00 | 91 | 1010.5 |
| 20260509074552 | 14 | 0 | 0.0 | 0.0 | 0.00 | 0.66 | 0.00 | 91 | 1010.9 |
| 20260509073056 | 14 | 0 | 0.0 | 0.0 | 0.00 | 0.66 | 0.00 | 90 | 1011.1 |
| 20260509071559 | 15 | 0 | 0.0 | 0.0 | 0.00 | 0.66 | 0.00 | 90 | 1011.0 |
| 20260509070051 | 15 | 0 | 0.0 | 0.0 | 0.00 | 0.66 | 0.00 | 90 | 1011.1 |
| 20260509064606 | 15 | 0 | 0.0 | 0.0 | 0.00 | 0.66 | 0.00 | 90 | 1011.1 |
| 20260509063053 | 15 | 0 | 0.0 | 0.0 | 0.00 | 0.66 | 0.00 | 89 | 1010.9 |
| 20260509061553 | 15 | 0 | 0.0 | 0.0 | 0.00 | 0.66 | 0.00 | 89 | 1011.4 |
| 20260509060051 | 15 | 0 | 0.0 | 0.0 | 0.00 | 0.66 | 0.00 | 88 | 1011.2 |
| 20260509054600 | 16 | 0 | 0.0 | 0.0 | 0.00 | 0.66 | 0.00 | 88 | 1011.1 |
| 20260509053103 | 16 | 0 | 0.0 | 0.0 | 0.00 | 0.66 | 0.00 | 88 | 1011.0 |
| 20260509051554 | 16 | 0 | 0.0 | 0.0 | 0.00 | 0.66 | 0.00 | 88 | 1011.1 |
| 20260509050056 | 16 | 0 | 0.0 | 0.0 | 0.00 | 0.66 | 0.00 | 88 | 1010.9 |